Aeroporto :
LOGIN :

Iscrizione | Disclaimer

   EN    FR    IT 

 










Sommario :    VFR   VFR Marginale   IFR   IFR Intensivo   IFR Molto Intensivo
Visibilità : 
Base nubi : 
>= 8 km
>= 3000ft
5 / 8 km
1000 / 3000 ft
1500m / 5 km
500 / 1000 ft
800 / 1500m
200 / 500 ft
< 800m
< 200 ft
Simboli :   Temporali  Nebbia  Neve Forte  Precipitazioni Forti  Vento > 20 kt
SIGMETs :   Varie  Temporali  Ghiacco  Turbolenza  Onda orograficha  Ceneri Vulcaniche






- Altitudine del aeroporto : 1020 ft
- Codice IATA : ILZ


LZZI - Žilina

ULTIMO METAR :
  • 231930Z 07003KT 040V110 9999 -RA BKN030 OVC042 06/06 Q1002

METARs OBSOLETI :
  • 231900Z VRB01KT 9999 SCT027 OVC043 07/07 Q1002
  • 231830Z VRB01KT 9999 -RA SCT028 OVC039 07/07 Q1002
  • 231800Z VRB01KT 9999 -RA SCT027 OVC043 07/07 Q1003
  • 231730Z 11003KT 9999 -RA OVC037 07/07 Q1002
  • 231700Z 10003KT 9999 -RA OVC036 07/07 Q1003
  • 231630Z VRB01KT 9999 -RA SCT024 OVC037 07/07 Q1002
  • 231600Z VRB01KT 9999 -RA FEW027 OVC035 07/07 Q1002
  • 231530Z 23002KT 9999 -RA FEW017 OVC039 08/07 Q1003
  • 231500Z 34004KT 9999 FEW019 BKN043 08/07 Q1002

TAF TAF LZZI
Valido dal 23 a 18 ore il 24 a 03 ore UTC


231715Z 2318/2403 20007KT 9999 -RA FEW014 OVC025
TEMPO 2322/2403 5000 RA BKN006 OVC013



MetMap, La meteo Aeronautica in un colpo d'occhio ! - Copyright ORBIFLY Dicembre 2007 - Disclaimer

ORBIFLY MET'MAP TEAM :

Programmazione e sviluppo : Alexandra Zaïnal
Concezione : Baudouin d'Aumeries
Supporto tecnico e logistico : Manuel Goepfert
Aiuto : Marc-Olivier Méhu
Aiuto per la traduzione : Arnaldo La Scala




FONTI E CREDITI :

   NOAA